createdAt,value
2023-02-12T00:00:46.489Z,3.39
2023-02-12T00:01:49.520Z,3.34
2023-02-12T00:02:52.894Z,3.31
2023-02-12T00:03:56.059Z,3.28
2023-02-12T00:04:59.058Z,3.33
2023-02-12T00:06:02.653Z,3.37
2023-02-12T00:07:05.777Z,3.58
2023-02-12T00:08:11.513Z,3.50
2023-02-12T00:09:14.618Z,3.53
2023-02-12T00:10:17.945Z,3.61
2023-02-12T00:11:24.784Z,3.64
2023-02-12T00:12:27.895Z,3.66
2023-02-12T00:13:31.935Z,3.65
2023-02-12T00:14:35.104Z,3.58
2023-02-12T00:15:44.434Z,3.68
2023-02-12T00:16:47.422Z,3.59
2023-02-12T00:17:50.458Z,3.52
2023-02-12T00:18:55.774Z,3.49
2023-02-12T00:19:59.615Z,3.47
2023-02-12T00:21:03.242Z,3.43
2023-02-12T00:22:06.258Z,3.46
2023-02-12T00:23:10.701Z,3.42
2023-02-12T00:24:13.522Z,3.49
2023-02-12T00:25:17.417Z,3.42
2023-02-12T00:26:21.800Z,3.35
2023-02-12T00:27:25.985Z,3.44
2023-02-12T00:28:29.060Z,3.50
2023-02-12T00:29:33.273Z,3.53
2023-02-12T00:30:36.882Z,3.54
2023-02-12T00:31:40.146Z,3.46
2023-02-12T00:32:43.112Z,3.51
2023-02-12T00:33:46.106Z,3.52
2023-02-12T00:34:49.755Z,3.56
2023-02-12T00:35:59.302Z,3.50
2023-02-12T00:37:02.393Z,3.42
2023-02-12T00:38:05.290Z,3.39
2023-02-12T00:39:08.244Z,3.39
2023-02-12T00:40:11.615Z,3.40
2023-02-12T00:41:14.867Z,3.45
2023-02-12T00:42:17.754Z,3.41
2023-02-12T00:43:20.839Z,3.37
2023-02-12T00:44:23.876Z,3.45
2023-02-12T00:45:26.820Z,3.54
2023-02-12T00:46:29.940Z,3.55
2023-02-12T00:47:33.004Z,3.65
2023-02-12T00:48:36.797Z,3.57
2023-02-12T00:49:40.268Z,3.54
2023-02-12T00:50:48.848Z,3.61
2023-02-12T00:51:52.012Z,3.59
2023-02-12T00:52:55.055Z,3.59
2023-02-12T00:53:58.058Z,3.57
2023-02-12T00:55:01.056Z,3.62
2023-02-12T00:56:04.906Z,3.68
2023-02-12T00:57:07.899Z,3.62
2023-02-12T00:58:11.422Z,3.53
2023-02-12T00:59:14.895Z,3.54
2023-02-12T01:00:19.261Z,3.60
2023-02-12T01:01:22.352Z,3.53
2023-02-12T01:02:26.018Z,3.55
2023-02-12T01:03:29.222Z,3.57
2023-02-12T01:04:32.537Z,3.51
2023-02-12T01:05:37.193Z,3.40
2023-02-12T01:06:40.770Z,3.37
2023-02-12T01:07:43.910Z,3.42
2023-02-12T01:08:46.866Z,3.41
2023-02-12T01:09:49.872Z,3.41
2023-02-12T01:11:05.134Z,3.44
2023-02-12T01:12:08.504Z,3.41
2023-02-12T01:13:16.000Z,3.35
2023-02-12T01:14:19.203Z,3.33
2023-02-12T01:15:22.850Z,3.41
2023-02-12T01:16:26.514Z,3.35
2023-02-12T01:17:29.626Z,3.29
2023-02-12T01:18:32.686Z,3.20
2023-02-12T01:19:35.743Z,3.18
2023-02-12T01:20:40.357Z,3.36
2023-02-12T01:21:43.289Z,3.42
2023-02-12T01:22:46.398Z,3.36
2023-02-12T01:23:49.600Z,3.33
2023-02-12T01:24:52.766Z,3.38
2023-02-12T01:25:56.080Z,3.31
2023-02-12T01:26:59.394Z,3.24
2023-02-12T01:28:02.369Z,3.19
2023-02-12T01:29:07.745Z,3.21
2023-02-12T01:30:13.715Z,3.22
2023-02-12T01:31:21.321Z,3.15
2023-02-12T01:32:24.430Z,3.16
2023-02-12T01:33:27.816Z,3.12
2023-02-12T01:34:30.860Z,3.20
2023-02-12T01:35:33.896Z,3.14
2023-02-12T01:36:36.932Z,3.12
2023-02-12T01:37:40.098Z,3.04
2023-02-12T01:38:43.563Z,2.99
2023-02-12T01:39:46.619Z,2.92
2023-02-12T01:40:49.632Z,2.91
2023-02-12T01:41:52.544Z,2.96
2023-02-12T01:42:55.579Z,3.03
2023-02-12T01:44:13.099Z,3.01
2023-02-12T01:45:16.262Z,3.01
2023-02-12T01:46:19.254Z,2.98
2023-02-12T01:47:22.702Z,3.00
2023-02-12T01:48:28.179Z,3.00
2023-02-12T01:49:42.060Z,3.03
2023-02-12T01:50:48.219Z,3.07
2023-02-12T01:51:59.512Z,3.08
2023-02-12T01:53:03.058Z,3.09
2023-02-12T01:54:09.100Z,3.02
2023-02-12T01:55:13.059Z,2.91
2023-02-12T01:56:17.744Z,2.96
2023-02-12T01:57:21.351Z,2.87
2023-02-12T01:58:26.386Z,2.90
2023-02-12T01:59:31.102Z,2.83
2023-02-12T02:00:34.421Z,2.82
2023-02-12T02:01:37.761Z,2.82
2023-02-12T02:02:47.844Z,2.81
2023-02-12T02:03:55.304Z,2.78
2023-02-12T02:05:03.021Z,2.82
2023-02-12T02:06:39.990Z,2.79
2023-02-12T02:07:44.364Z,2.81
2023-02-12T02:08:48.809Z,2.88
2023-02-12T02:09:52.409Z,2.89
2023-02-12T02:10:55.745Z,3.03
2023-02-12T02:12:17.577Z,3.02
2023-02-12T02:13:39.718Z,3.04
2023-02-12T02:14:42.921Z,3.10
2023-02-12T02:15:49.915Z,3.09
2023-02-12T02:17:19.152Z,3.09
2023-02-12T02:18:31.500Z,3.22
2023-02-12T02:20:12.056Z,3.17
2023-02-12T02:21:26.798Z,3.24
2023-02-12T02:22:51.509Z,3.28
2023-02-12T02:24:15.641Z,3.34
2023-02-12T02:25:45.932Z,3.27
2023-02-12T02:27:00.518Z,3.22
2023-02-12T02:28:40.769Z,3.33
2023-02-12T02:30:22.460Z,3.28
2023-02-12T02:31:57.891Z,3.31
2023-02-12T02:33:11.806Z,3.36
2023-02-12T02:34:21.677Z,3.29
2023-02-12T02:35:42.129Z,3.37
2023-02-12T02:37:00.494Z,3.33
2023-02-12T02:38:31.734Z,3.31
2023-02-12T02:39:44.077Z,3.24
2023-02-12T02:40:55.100Z,3.23
2023-02-12T02:42:05.914Z,3.15
2023-02-12T02:43:20.368Z,3.15
2023-02-12T02:44:40.047Z,3.18
2023-02-12T02:45:56.131Z,3.21
2023-02-12T02:47:02.404Z,3.18
2023-02-12T02:48:13.100Z,3.11
2023-02-12T02:49:32.153Z,3.17
2023-02-12T02:50:39.170Z,3.25
2023-02-12T02:51:46.278Z,3.19
2023-02-12T02:52:56.989Z,3.10
2023-02-12T02:54:13.564Z,3.06
2023-02-12T02:55:21.428Z,3.06
2023-02-12T02:56:27.262Z,3.03
2023-02-12T02:57:46.526Z,3.08
2023-02-12T02:58:58.773Z,3.12
2023-02-12T03:00:13.463Z,3.11
2023-02-12T03:01:25.998Z,3.17
2023-02-12T03:02:33.825Z,3.12
2023-02-12T03:03:49.295Z,3.04
2023-02-12T03:05:02.474Z,3.08
2023-02-12T03:06:29.746Z,2.99
2023-02-12T03:07:42.579Z,3.04
2023-02-12T03:09:02.002Z,3.03
2023-02-12T03:10:20.755Z,2.98
2023-02-12T03:11:28.513Z,2.97
2023-02-12T03:12:37.115Z,3.03
2023-02-12T03:13:51.875Z,2.98
2023-02-12T03:15:02.375Z,2.91
2023-02-12T03:16:21.955Z,2.99
2023-02-12T03:17:33.081Z,3.06
2023-02-12T03:18:54.846Z,3.00
2023-02-12T03:20:05.435Z,2.98
2023-02-12T03:21:14.611Z,2.91
2023-02-12T03:22:25.419Z,2.90
2023-02-12T03:24:02.777Z,2.92
2023-02-12T03:25:17.728Z,2.83
2023-02-12T03:26:31.797Z,2.82
2023-02-12T03:27:42.174Z,2.84
2023-02-12T03:28:45.420Z,2.82
2023-02-12T03:29:48.895Z,3.01
2023-02-12T03:30:54.643Z,3.10
2023-02-12T03:32:15.174Z,2.99
2023-02-12T03:33:30.470Z,2.92
2023-02-12T03:34:51.880Z,2.90
2023-02-12T03:36:08.188Z,2.84
2023-02-12T03:37:18.840Z,3.03
2023-02-12T03:38:46.851Z,2.95
2023-02-12T03:39:59.384Z,3.14
2023-02-12T03:41:09.630Z,3.16
2023-02-12T03:42:34.726Z,3.14
2023-02-12T03:43:57.824Z,3.13
2023-02-12T03:45:29.532Z,3.02
2023-02-12T03:46:55.680Z,3.02
2023-02-12T03:48:25.276Z,3.00
2023-02-12T03:49:35.127Z,3.16
2023-02-12T03:51:15.002Z,3.25
2023-02-12T03:52:17.915Z,3.11
2023-02-12T03:53:21.248Z,3.22
2023-02-12T03:54:25.048Z,3.17
2023-02-12T03:55:30.143Z,3.18
2023-02-12T03:56:58.220Z,3.17
2023-02-12T03:58:03.798Z,3.17
2023-02-12T03:59:06.964Z,3.13
2023-02-12T04:00:20.826Z,3.08
2023-02-12T04:01:24.441Z,3.05
2023-02-12T04:02:28.479Z,3.06
2023-02-12T04:03:32.217Z,3.14
2023-02-12T04:04:35.532Z,3.06
2023-02-12T04:05:38.709Z,3.05
2023-02-12T04:06:42.279Z,3.14
2023-02-12T04:07:45.314Z,3.10
2023-02-12T04:08:48.515Z,3.05
2023-02-12T04:09:51.692Z,3.10
2023-02-12T04:11:17.867Z,3.09
2023-02-12T04:12:44.121Z,3.08
2023-02-12T04:14:15.497Z,3.02
2023-02-12T04:15:47.398Z,3.14
2023-02-12T04:17:09.142Z,3.12
2023-02-12T04:18:33.152Z,3.17
2023-02-12T04:19:54.716Z,3.28
2023-02-12T04:21:14.140Z,3.28
2023-02-12T04:22:32.409Z,3.26
2023-02-12T04:23:38.072Z,3.18
2023-02-12T04:25:10.230Z,3.16
2023-02-12T04:26:16.301Z,3.17
2023-02-12T04:27:25.997Z,3.17
2023-02-12T04:28:58.645Z,3.17
2023-02-12T04:30:13.791Z,3.08
2023-02-12T04:31:41.014Z,3.14
2023-02-12T04:32:49.194Z,3.28
2023-02-12T04:34:22.533Z,3.30
2023-02-12T04:35:34.135Z,3.26
2023-02-12T04:36:45.395Z,3.33
2023-02-12T04:38:10.798Z,3.33
2023-02-12T04:39:20.634Z,3.29
2023-02-12T04:40:24.006Z,3.34
2023-02-12T04:41:27.710Z,3.34
2023-02-12T04:42:31.056Z,3.38
2023-02-12T04:43:37.079Z,3.40
2023-02-12T04:44:43.300Z,3.32
2023-02-12T04:45:46.368Z,3.37
2023-02-12T04:46:49.992Z,3.34
2023-02-12T04:47:53.212Z,3.32
2023-02-12T04:48:59.839Z,3.28
2023-02-12T04:50:03.258Z,3.18
2023-02-12T04:51:06.256Z,3.17
2023-02-12T04:52:10.149Z,3.29
2023-02-12T04:53:13.061Z,3.29
2023-02-12T04:54:17.521Z,3.30
2023-02-12T04:55:20.552Z,3.31
2023-02-12T04:56:23.438Z,3.29
2023-02-12T04:57:26.692Z,3.32
2023-02-12T04:58:29.679Z,3.31
2023-02-12T04:59:32.820Z,3.25
2023-02-12T05:00:35.874Z,3.21
2023-02-12T05:01:40.310Z,3.21
2023-02-12T05:02:43.456Z,3.21
2023-02-12T05:03:46.501Z,3.25
2023-02-12T05:04:50.636Z,3.23
2023-02-12T05:05:53.762Z,3.21
2023-02-12T05:06:57.401Z,3.22
2023-02-12T05:08:00.907Z,3.21
2023-02-12T05:09:05.793Z,3.29
2023-02-12T05:10:09.698Z,3.32
2023-02-12T05:11:13.093Z,3.32
2023-02-12T05:12:16.026Z,3.27
2023-02-12T05:13:18.977Z,3.27
2023-02-12T05:14:24.992Z,3.30
2023-02-12T05:15:28.009Z,3.31
2023-02-12T05:16:31.034Z,3.29
2023-02-12T05:17:34.125Z,3.29
2023-02-12T05:18:37.149Z,3.25
2023-02-12T05:19:40.333Z,3.26
2023-02-12T05:20:43.503Z,3.25
2023-02-12T05:21:46.452Z,3.25
2023-02-12T05:22:53.237Z,3.25
2023-02-12T05:23:56.374Z,3.23
2023-02-12T05:24:59.372Z,3.22
2023-02-12T05:26:05.458Z,3.19
2023-02-12T05:27:09.437Z,3.16
2023-02-12T05:28:12.706Z,3.22
2023-02-12T05:29:15.866Z,3.24
2023-02-12T05:30:19.122Z,3.24
2023-02-12T05:31:22.779Z,3.25
2023-02-12T05:32:25.843Z,3.22
2023-02-12T05:33:28.838Z,3.28
2023-02-12T05:34:31.791Z,3.25
2023-02-12T05:35:37.803Z,3.23
2023-02-12T05:36:41.590Z,3.23
2023-02-12T05:37:44.569Z,3.18
2023-02-12T05:38:48.357Z,3.18
2023-02-12T05:39:51.413Z,3.18
2023-02-12T05:40:54.328Z,3.17
2023-02-12T05:41:57.410Z,3.28
2023-02-12T05:43:00.492Z,3.30
2023-02-12T05:44:04.828Z,3.32
2023-02-12T05:45:08.019Z,3.26
2023-02-12T05:46:12.274Z,3.35
2023-02-12T05:47:15.273Z,3.35
2023-02-12T05:48:18.405Z,3.33
2023-02-12T05:49:21.622Z,3.28
2023-02-12T05:50:24.549Z,3.30
2023-02-12T05:51:28.056Z,3.28
2023-02-12T05:52:30.975Z,3.31
2023-02-12T05:53:34.351Z,3.32
2023-02-12T05:54:37.207Z,3.39
2023-02-12T05:55:40.177Z,3.43
2023-02-12T05:56:48.188Z,3.37
2023-02-12T05:57:51.534Z,3.38
2023-02-12T05:58:59.244Z,3.40
2023-02-12T06:00:03.020Z,3.39
2023-02-12T06:01:20.543Z,3.42
2023-02-12T06:02:23.665Z,3.34
2023-02-12T06:03:26.635Z,3.35
2023-02-12T06:04:29.822Z,3.30
2023-02-12T06:05:33.000Z,3.36
2023-02-12T06:06:36.085Z,3.43
2023-02-12T06:07:39.056Z,3.36
2023-02-12T06:08:42.347Z,3.34
2023-02-12T06:09:45.265Z,3.38
2023-02-12T06:10:48.192Z,3.32
2023-02-12T06:11:51.441Z,3.38
2023-02-12T06:12:55.556Z,3.43
2023-02-12T06:13:58.609Z,3.44
2023-02-12T06:15:01.747Z,3.51
2023-02-12T06:16:06.832Z,3.54
2023-02-12T06:17:09.857Z,3.51
2023-02-12T06:18:13.085Z,3.43
2023-02-12T06:19:16.993Z,3.40
2023-02-12T06:20:20.834Z,3.48
2023-02-12T06:21:26.489Z,3.41
2023-02-12T06:22:29.424Z,3.46
2023-02-12T06:23:32.401Z,3.51
2023-02-12T06:24:35.679Z,3.52
2023-02-12T06:25:38.705Z,3.59
2023-02-12T06:26:42.257Z,3.55
2023-02-12T06:27:45.745Z,3.50
2023-02-12T06:28:49.537Z,3.46
2023-02-12T06:29:52.497Z,3.40
2023-02-12T06:31:00.815Z,3.41
2023-02-12T06:32:04.100Z,3.43
2023-02-12T06:33:07.730Z,3.40
2023-02-12T06:34:13.740Z,3.34
2023-02-12T06:35:17.053Z,3.34
2023-02-12T06:36:20.994Z,3.50
2023-02-12T06:37:23.970Z,3.56
2023-02-12T06:38:27.089Z,3.50
2023-02-12T06:39:30.024Z,3.41
2023-02-12T06:40:33.483Z,3.49
2023-02-12T06:41:36.647Z,3.59
2023-02-12T06:42:39.563Z,3.55
2023-02-12T06:43:42.960Z,3.53
2023-02-12T06:44:46.929Z,3.48
2023-02-12T06:45:49.955Z,3.51
2023-02-12T06:46:53.966Z,3.59
2023-02-12T06:47:57.062Z,3.71
2023-02-12T06:49:01.472Z,3.75
2023-02-12T06:50:05.084Z,3.65
2023-02-12T06:51:12.831Z,3.61
2023-02-12T06:52:15.778Z,3.54
2023-02-12T06:53:19.074Z,3.66
2023-02-12T06:54:22.127Z,3.62
2023-02-12T06:55:25.252Z,3.63
2023-02-12T06:56:28.412Z,3.60
2023-02-12T06:57:31.624Z,3.51
2023-02-12T06:58:34.610Z,3.57
2023-02-12T06:59:37.689Z,3.54
2023-02-12T07:00:40.904Z,3.55
2023-02-12T07:01:44.430Z,3.53
2023-02-12T07:02:53.986Z,3.49
2023-02-12T07:04:00.422Z,3.55
2023-02-12T07:05:04.060Z,3.53
2023-02-12T07:06:07.571Z,3.65
2023-02-12T07:07:10.528Z,3.63
2023-02-12T07:08:13.651Z,3.79
2023-02-12T07:09:16.669Z,3.78
2023-02-12T07:10:20.232Z,3.66
2023-02-12T07:11:25.436Z,3.59
2023-02-12T07:12:28.462Z,3.73
2023-02-12T07:13:35.016Z,3.89
2023-02-12T07:14:37.989Z,3.88
2023-02-12T07:15:40.987Z,3.85
2023-02-12T07:16:44.169Z,3.81
2023-02-12T07:17:47.630Z,3.78
2023-02-12T07:18:50.656Z,3.80
2023-02-12T07:19:54.080Z,3.83
2023-02-12T07:20:57.344Z,3.77
2023-02-12T07:22:00.561Z,3.81
2023-02-12T07:23:03.475Z,3.91
2023-02-12T07:24:06.553Z,3.99
2023-02-12T07:25:09.629Z,4.01
2023-02-12T07:26:14.191Z,3.96
2023-02-12T07:27:17.224Z,3.94
2023-02-12T07:28:20.447Z,4.00
2023-02-12T07:29:23.812Z,4.04
2023-02-12T07:30:27.036Z,4.17
2023-02-12T07:31:30.892Z,4.23
2023-02-12T07:32:34.974Z,4.32
2023-02-12T07:33:39.323Z,4.20
2023-02-12T07:34:42.102Z,4.19
2023-02-12T07:35:45.075Z,4.25
2023-02-12T07:36:48.110Z,4.26
2023-02-12T07:37:51.348Z,4.27
2023-02-12T07:38:55.409Z,4.35
2023-02-12T07:39:58.391Z,4.32
2023-02-12T07:41:22.643Z,4.37
2023-02-12T07:42:25.560Z,4.43
2023-02-12T07:43:28.564Z,4.47
2023-02-12T07:44:32.605Z,4.54
2023-02-12T07:45:35.635Z,4.57
2023-02-12T07:46:49.691Z,4.60
2023-02-12T07:47:52.815Z,4.55
2023-02-12T07:48:58.204Z,4.53
2023-02-12T07:50:01.379Z,4.58
2023-02-12T07:51:13.059Z,4.58
2023-02-12T07:52:15.988Z,4.59
2023-02-12T07:53:19.194Z,4.63
2023-02-12T07:54:22.112Z,4.67
2023-02-12T07:55:26.054Z,4.71
2023-02-12T07:56:32.803Z,4.76
2023-02-12T07:57:36.300Z,4.88
2023-02-12T07:58:41.249Z,4.87
2023-02-12T07:59:44.287Z,4.99
2023-02-12T08:00:48.167Z,5.04
2023-02-12T08:01:53.097Z,5.04
2023-02-12T08:02:56.126Z,5.11
2023-02-12T08:04:02.414Z,5.26
2023-02-12T08:05:05.891Z,5.24
2023-02-12T08:06:14.119Z,5.20
2023-02-12T08:07:17.484Z,5.18
2023-02-12T08:08:20.554Z,5.21
2023-02-12T08:09:31.164Z,5.32
2023-02-12T08:10:34.527Z,5.37
2023-02-12T08:11:38.795Z,5.35
2023-02-12T08:12:42.038Z,5.47
2023-02-12T08:13:46.004Z,5.48
2023-02-12T08:14:48.852Z,5.49
2023-02-12T08:16:00.513Z,5.55
2023-02-12T08:17:04.250Z,5.57
2023-02-12T08:18:07.495Z,5.64
2023-02-12T08:19:19.506Z,5.74
2023-02-12T08:20:23.504Z,5.78
2023-02-12T08:21:28.804Z,5.80
2023-02-12T08:22:31.801Z,5.86
2023-02-12T08:23:35.670Z,5.88
2023-02-12T08:24:38.791Z,5.92
2023-02-12T08:25:41.889Z,5.89
2023-02-12T08:26:45.556Z,5.94
2023-02-12T08:27:48.527Z,5.91
2023-02-12T08:28:55.622Z,5.92
2023-02-12T08:29:58.849Z,5.88
2023-02-12T08:31:03.688Z,6.00
2023-02-12T08:32:10.954Z,6.04
2023-02-12T08:33:14.074Z,6.04
2023-02-12T08:34:31.492Z,6.05
2023-02-12T08:35:34.680Z,6.03
2023-02-12T08:36:40.438Z,6.16
2023-02-12T08:37:43.585Z,6.28
2023-02-12T08:38:48.150Z,6.29
2023-02-12T08:39:51.300Z,6.29
2023-02-12T08:40:54.337Z,6.27
2023-02-12T08:41:58.604Z,6.24
2023-02-12T08:43:01.506Z,6.29
2023-02-12T08:44:05.997Z,6.32
2023-02-12T08:45:09.415Z,6.35
2023-02-12T08:46:18.750Z,6.38
2023-02-12T08:47:22.086Z,6.44
2023-02-12T08:48:25.227Z,6.51
2023-02-12T08:49:30.414Z,6.54
2023-02-12T08:50:34.866Z,6.65
2023-02-12T08:51:40.465Z,6.60
2023-02-12T08:52:44.087Z,6.61
2023-02-12T08:53:49.029Z,6.77
2023-02-12T08:54:52.076Z,6.78
2023-02-12T08:55:55.460Z,6.80
2023-02-12T08:57:01.199Z,6.72
2023-02-12T08:58:04.107Z,6.79
2023-02-12T08:59:10.136Z,6.82
2023-02-12T09:00:13.910Z,6.95
2023-02-12T09:01:20.883Z,6.86
2023-02-12T09:02:23.791Z,6.82
2023-02-12T09:03:26.900Z,6.87
2023-02-12T09:04:30.339Z,6.86
2023-02-12T09:05:33.351Z,6.81
2023-02-12T09:06:36.838Z,6.87
2023-02-12T09:07:40.064Z,6.94
2023-02-12T09:08:43.708Z,6.98
2023-02-12T09:09:46.806Z,7.01
2023-02-12T09:10:49.841Z,7.02
2023-02-12T09:11:52.873Z,7.02
2023-02-12T09:12:55.693Z,7.02
2023-02-12T09:14:03.815Z,6.96
2023-02-12T09:15:06.922Z,6.99
2023-02-12T09:16:10.345Z,7.10
2023-02-12T09:17:13.545Z,7.06
2023-02-12T09:18:16.722Z,7.08
2023-02-12T09:19:20.142Z,7.17
2023-02-12T09:20:23.061Z,7.24
2023-02-12T09:21:26.867Z,7.24
2023-02-12T09:22:30.179Z,7.28
2023-02-12T09:23:33.521Z,7.28
2023-02-12T09:24:37.817Z,7.25
2023-02-12T09:25:44.208Z,7.28
2023-02-12T09:26:47.094Z,7.35
2023-02-12T09:27:50.198Z,7.46
2023-02-12T09:28:54.245Z,7.44
2023-02-12T09:29:57.606Z,7.45
2023-02-12T09:31:13.062Z,7.54
2023-02-12T09:32:16.028Z,7.52
2023-02-12T09:33:20.490Z,7.56
2023-02-12T09:34:23.605Z,7.62
2023-02-12T09:35:26.849Z,7.70
2023-02-12T09:36:30.487Z,7.71
2023-02-12T09:37:33.563Z,7.74
2023-02-12T09:38:36.733Z,7.75
2023-02-12T09:39:40.986Z,7.83
2023-02-12T09:41:12.167Z,7.87
2023-02-12T09:42:27.899Z,7.96
2023-02-12T09:43:56.080Z,7.93
2023-02-12T09:45:17.092Z,8.00
2023-02-12T09:46:36.636Z,8.05
2023-02-12T09:48:15.509Z,8.02
2023-02-12T09:50:03.704Z,8.14
2023-02-12T09:51:10.265Z,8.21
2023-02-12T09:52:25.102Z,8.24
2023-02-12T09:53:31.758Z,8.32
2023-02-12T09:54:40.929Z,8.27
2023-02-12T09:55:44.122Z,8.21
2023-02-12T09:56:52.484Z,8.26
2023-02-12T09:57:55.587Z,8.24
2023-02-12T09:59:04.790Z,8.17
2023-02-12T10:00:12.053Z,8.18
2023-02-12T10:01:18.673Z,8.15
2023-02-12T10:02:22.647Z,8.23
2023-02-12T10:03:28.105Z,8.22
2023-02-12T10:04:31.489Z,8.34
2023-02-12T10:05:50.502Z,8.43
2023-02-12T10:07:09.595Z,8.41
2023-02-12T10:08:24.571Z,8.37
2023-02-12T10:10:11.990Z,8.39
2023-02-12T10:11:32.745Z,8.37
2023-02-12T10:12:41.553Z,8.39
2023-02-12T10:14:22.119Z,8.39
2023-02-12T10:15:42.950Z,8.28
2023-02-12T10:17:15.102Z,8.04
2023-02-12T10:18:39.834Z,7.88
2023-02-12T10:20:05.127Z,7.87
2023-02-12T10:21:36.019Z,7.90
2023-02-12T10:23:16.858Z,8.03
2023-02-12T10:25:01.480Z,8.09
2023-02-12T10:26:19.866Z,8.33
2023-02-12T10:27:44.240Z,8.43
2023-02-12T10:28:48.059Z,8.47
2023-02-12T10:29:52.664Z,8.38
2023-02-12T10:31:23.981Z,8.32
2023-02-12T10:32:36.066Z,8.21
2023-02-12T10:33:45.795Z,8.21
2023-02-12T10:34:51.109Z,8.19
2023-02-12T10:36:23.031Z,8.13
2023-02-12T10:37:45.717Z,8.06
2023-02-12T10:38:59.386Z,7.97
2023-02-12T10:40:15.109Z,7.92
2023-02-12T10:41:18.261Z,8.00
2023-02-12T10:42:45.566Z,8.01
2023-02-12T10:43:49.326Z,7.97
2023-02-12T10:44:52.790Z,7.92
2023-02-12T10:45:56.302Z,7.93
2023-02-12T10:46:59.774Z,7.91
2023-02-12T10:48:09.620Z,7.89
2023-02-12T10:49:17.110Z,7.88
2023-02-12T10:50:39.398Z,7.89
2023-02-12T10:51:57.772Z,7.90
2023-02-12T10:53:03.796Z,7.94
2023-02-12T10:54:46.654Z,7.92
2023-02-12T10:55:50.296Z,8.01
2023-02-12T10:56:53.877Z,8.12
2023-02-12T10:57:58.519Z,8.39
2023-02-12T10:59:01.891Z,8.49
2023-02-12T11:00:31.177Z,8.54
2023-02-12T11:01:39.192Z,8.62
2023-02-12T11:03:09.064Z,8.70
2023-02-12T11:04:30.007Z,8.76
2023-02-12T11:05:36.419Z,8.69
2023-02-12T11:06:40.147Z,8.72
2023-02-12T11:07:50.676Z,8.65
2023-02-12T11:08:54.422Z,8.56
2023-02-12T11:09:58.140Z,8.58
2023-02-12T11:11:10.415Z,8.50
2023-02-12T11:12:30.461Z,8.54
2023-02-12T11:13:34.499Z,8.62
2023-02-12T11:14:37.973Z,8.76
2023-02-12T11:15:50.432Z,8.79
2023-02-12T11:17:00.559Z,8.82
2023-02-12T11:18:07.863Z,8.84
2023-02-12T11:19:25.672Z,8.91
2023-02-12T11:21:03.377Z,8.91
2023-02-12T11:22:19.092Z,8.82
2023-02-12T11:23:31.781Z,8.63
2023-02-12T11:24:37.308Z,8.51
2023-02-12T11:25:57.806Z,8.42
2023-02-12T11:27:17.089Z,8.31
2023-02-12T11:28:21.513Z,8.27
2023-02-12T11:29:25.280Z,8.28
2023-02-12T11:30:32.610Z,8.30
2023-02-12T11:31:37.189Z,8.28
2023-02-12T11:32:41.350Z,8.45
2023-02-12T11:33:46.411Z,8.50
2023-02-12T11:35:27.557Z,8.53
2023-02-12T11:36:35.826Z,8.57
2023-02-12T11:37:53.345Z,8.40
2023-02-12T11:38:59.331Z,8.49
2023-02-12T11:40:02.922Z,8.55
2023-02-12T11:41:20.300Z,8.51
2023-02-12T11:42:26.999Z,8.53
2023-02-12T11:43:32.018Z,8.44
2023-02-12T11:44:40.909Z,8.41
2023-02-12T11:45:48.828Z,8.40
2023-02-12T11:46:57.640Z,8.39
2023-02-12T11:48:02.150Z,8.40
2023-02-12T11:49:09.873Z,8.54
2023-02-12T11:50:25.700Z,8.49
2023-02-12T11:51:31.648Z,8.51
2023-02-12T11:52:41.852Z,8.50
2023-02-12T11:53:50.754Z,8.60
2023-02-12T11:55:01.960Z,8.55
2023-02-12T11:56:11.341Z,8.49
2023-02-12T11:57:39.884Z,8.42
2023-02-12T11:58:44.818Z,8.37
2023-02-12T11:59:48.851Z,8.38
2023-02-12T12:01:19.192Z,8.45
2023-02-12T12:02:34.185Z,8.53
2023-02-12T12:04:09.874Z,8.48
2023-02-12T12:05:18.696Z,8.36
2023-02-12T12:06:40.162Z,8.33
2023-02-12T12:07:50.595Z,8.46
2023-02-12T12:09:30.601Z,8.38
2023-02-12T12:10:45.396Z,8.28
2023-02-12T12:11:57.197Z,8.24
2023-02-12T12:13:06.235Z,8.19
2023-02-12T12:14:28.236Z,8.16
2023-02-12T12:15:55.323Z,8.15
2023-02-12T12:17:33.869Z,8.23
2023-02-12T12:19:01.734Z,8.27
2023-02-12T12:20:15.080Z,8.39
2023-02-12T12:21:58.847Z,8.61
2023-02-12T12:23:33.073Z,8.73
2023-02-12T12:24:46.666Z,8.88
2023-02-12T12:25:57.108Z,8.93
2023-02-12T12:27:14.677Z,9.09
2023-02-12T12:28:35.578Z,9.31
2023-02-12T12:29:55.986Z,9.41
2023-02-12T12:31:04.782Z,9.50
2023-02-12T12:32:12.560Z,9.57
2023-02-12T12:33:22.618Z,9.64
2023-02-12T12:34:30.190Z,9.71
2023-02-12T12:36:24.929Z,9.71
2023-02-12T12:38:14.839Z,9.82
2023-02-12T12:39:35.841Z,9.72
2023-02-12T12:41:21.169Z,9.51
2023-02-12T12:43:01.091Z,9.42
2023-02-12T12:44:13.244Z,9.29
2023-02-12T12:45:41.884Z,9.21
2023-02-12T12:46:59.459Z,9.12
2023-02-12T12:48:26.035Z,9.07
2023-02-12T12:49:58.541Z,9.02
2023-02-12T12:51:36.216Z,8.94
2023-02-12T12:53:01.758Z,8.87
2023-02-12T12:54:31.459Z,8.80
2023-02-12T12:55:53.649Z,8.77
2023-02-12T12:57:04.878Z,8.75
2023-02-12T12:58:19.305Z,8.73
2023-02-12T12:59:30.208Z,8.85
2023-02-12T13:01:00.296Z,8.79
2023-02-12T13:02:31.664Z,8.71
2023-02-12T13:04:01.980Z,8.89
2023-02-12T13:05:47.595Z,8.98
2023-02-12T13:06:56.232Z,8.84
2023-02-12T13:08:18.279Z,8.61
2023-02-12T13:10:07.726Z,8.55
2023-02-12T13:11:52.198Z,8.55
2023-02-12T13:13:27.055Z,8.57
2023-02-12T13:14:55.231Z,8.54
2023-02-12T13:16:12.573Z,8.52
2023-02-12T13:17:27.737Z,8.50
2023-02-12T13:19:02.341Z,8.53
2023-02-12T13:20:28.117Z,8.53
2023-02-12T13:21:50.256Z,8.50
2023-02-12T13:23:05.373Z,8.53
2023-02-12T13:24:19.737Z,8.53
2023-02-12T13:25:46.204Z,8.60
2023-02-12T13:26:57.961Z,8.63
2023-02-12T13:28:04.007Z,8.52
2023-02-12T13:29:20.055Z,8.46
2023-02-12T13:30:28.022Z,8.44
2023-02-12T13:31:36.824Z,8.41
2023-02-12T13:32:50.449Z,8.35
2023-02-12T13:33:59.124Z,8.35
2023-02-12T13:35:07.552Z,8.33
2023-02-12T13:36:14.872Z,8.37
2023-02-12T13:37:28.457Z,8.50
2023-02-12T13:38:58.450Z,8.45
2023-02-12T13:40:06.859Z,8.42
2023-02-12T13:41:13.433Z,8.37
2023-02-12T13:42:40.088Z,8.36
2023-02-12T13:43:43.727Z,8.32
2023-02-12T13:45:03.017Z,8.32
2023-02-12T13:46:25.629Z,8.34
2023-02-12T13:48:14.537Z,8.29
2023-02-12T13:49:25.547Z,8.28
2023-02-12T13:50:35.693Z,8.36
2023-02-12T13:52:13.598Z,8.36
2023-02-12T13:53:50.527Z,8.40
2023-02-12T13:55:23.948Z,8.26
2023-02-12T13:56:50.589Z,8.24
2023-02-12T13:58:32.869Z,8.24
2023-02-12T13:59:36.508Z,8.18
2023-02-12T14:00:53.001Z,8.14
2023-02-12T14:01:57.962Z,8.13
2023-02-12T14:03:10.026Z,8.13
2023-02-12T14:04:23.663Z,8.13
2023-02-12T14:05:31.614Z,8.15
2023-02-12T14:06:36.251Z,8.20
2023-02-12T14:07:54.617Z,8.22
2023-02-12T14:09:21.448Z,8.24
2023-02-12T14:10:50.878Z,8.36
2023-02-12T14:11:55.581Z,8.29
2023-02-12T14:13:10.873Z,8.24
2023-02-12T14:14:25.113Z,8.16
2023-02-12T14:15:45.742Z,8.09
2023-02-12T14:16:49.778Z,8.08
2023-02-12T14:17:57.055Z,8.08
2023-02-12T14:19:40.033Z,8.07
2023-02-12T14:20:44.834Z,8.08
2023-02-12T14:21:49.318Z,8.05
2023-02-12T14:23:24.661Z,8.02
2023-02-12T14:24:55.874Z,8.08
2023-02-12T14:26:14.457Z,8.05
2023-02-12T14:27:25.236Z,8.08
2023-02-12T14:29:00.530Z,8.09
2023-02-12T14:30:08.199Z,8.00
2023-02-12T14:31:18.863Z,7.97
2023-02-12T14:32:50.688Z,7.85
2023-02-12T14:34:18.938Z,7.78
2023-02-12T14:35:42.144Z,7.77
2023-02-12T14:36:49.857Z,7.84
2023-02-12T14:38:03.259Z,7.99
2023-02-12T14:39:32.855Z,7.85
2023-02-12T14:40:46.093Z,7.83
2023-02-12T14:42:11.849Z,7.74
2023-02-12T14:43:54.921Z,7.77
2023-02-12T14:44:59.092Z,7.72
2023-02-12T14:46:35.322Z,7.68
2023-02-12T14:48:00.205Z,7.81
2023-02-12T14:49:06.962Z,7.60
2023-02-12T14:50:39.552Z,7.56
2023-02-12T14:51:52.569Z,7.50
2023-02-12T14:53:09.167Z,7.52
2023-02-12T14:54:27.634Z,7.51
2023-02-12T14:55:35.551Z,7.59
2023-02-12T14:56:49.394Z,7.52
2023-02-12T14:58:00.186Z,7.54
2023-02-12T14:59:05.738Z,7.60
2023-02-12T15:00:18.914Z,7.52
2023-02-12T15:01:33.726Z,7.47
2023-02-12T15:02:42.107Z,7.51
2023-02-12T15:03:56.489Z,7.40
2023-02-12T15:05:08.781Z,7.31
2023-02-12T15:06:19.526Z,7.31
2023-02-12T15:07:41.874Z,7.45
2023-02-12T15:09:04.807Z,7.37
2023-02-12T15:10:26.677Z,7.25
2023-02-12T15:11:56.125Z,7.12
2023-02-12T15:13:09.593Z,7.12
2023-02-12T15:14:32.011Z,7.11
2023-02-12T15:15:45.177Z,7.10
2023-02-12T15:17:14.782Z,7.05
2023-02-12T15:18:42.957Z,7.02
2023-02-12T15:20:13.543Z,7.05
2023-02-12T15:21:33.634Z,7.03
2023-02-12T15:22:42.732Z,6.99
2023-02-12T15:23:47.413Z,7.01
2023-02-12T15:24:52.157Z,6.94
2023-02-12T15:26:02.867Z,6.88
2023-02-12T15:27:08.685Z,6.88
2023-02-12T15:28:25.613Z,6.87
2023-02-12T15:29:50.726Z,6.90
2023-02-12T15:30:57.989Z,6.89
2023-02-12T15:32:07.257Z,6.84
2023-02-12T15:33:29.617Z,6.75
2023-02-12T15:34:42.616Z,6.69
2023-02-12T15:35:47.896Z,6.67
2023-02-12T15:36:53.360Z,6.62
2023-02-12T15:38:01.733Z,6.61
2023-02-12T15:39:10.007Z,6.58
2023-02-12T15:40:22.067Z,6.53